Prairie, Nebraska
Current Conditions -  °F | °C
As of 10:15 PM on Wednesday 28 Jan 2015 (Local Time) from KHDE Reporting Station
Clear Clear  
Wind Chill: 40°   Ceiling: Unl
Heat Index: 46°   Visibility: 10mi
Dew Point: 28°   Wind: 12mph
Humidity: 51%   Direction: 320°NW
Pressure: 30.03"   Gusts: 17mph
Location:  40.4958°N, 99.3198°W
Report Text: KHDE 290415Z AUTO 32010G15KT 10SM CLR 08/M02 A3003 RMK AO2 T00771020
Loading
Personal Weather Stations






























Interactive Weather Map New forecast layout! Learn more

10-Day Weather Forecast

Advertisements
Track Severe Weather on mobile